createdAt,value
2019-02-20T00:03:31.004Z,34.28
2019-02-20T00:08:29.518Z,33.31
2019-02-20T00:13:42.599Z,34.81
2019-02-20T00:18:42.660Z,29.33
2019-02-20T00:23:42.428Z,30.13
2019-02-20T00:28:54.045Z,30.21
2019-02-20T00:33:56.493Z,27.29
2019-02-20T00:38:56.738Z,29.45
2019-02-20T00:44:00.086Z,29.34
2019-02-20T00:49:11.653Z,28.58
2019-02-20T00:54:10.627Z,30.01
2019-02-20T00:59:10.742Z,29.51
2019-02-20T01:04:21.951Z,29.00
2019-02-20T01:09:12.051Z,31.05
2019-02-20T01:14:22.684Z,30.91
2019-02-20T01:19:11.354Z,29.74
2019-02-20T01:24:24.546Z,29.76
2019-02-20T01:29:23.478Z,31.66
2019-02-20T01:34:42.281Z,31.39
2019-02-20T01:39:43.202Z,31.99
2019-02-20T01:44:42.302Z,28.79
2019-02-20T01:49:55.360Z,30.22
2019-02-20T01:54:56.355Z,30.75
2019-02-20T01:59:57.656Z,29.95
2019-02-20T02:05:15.988Z,29.09
2019-02-20T02:10:08.920Z,29.13
2019-02-20T02:15:19.993Z,30.17
2019-02-20T02:20:21.708Z,26.00
2019-02-20T02:25:31.186Z,31.13
2019-02-20T02:30:29.561Z,26.60
2019-02-20T02:35:40.032Z,28.19
2019-02-20T02:40:43.610Z,29.00
2019-02-20T02:45:45.924Z,31.80
2019-02-20T02:50:50.420Z,28.85
2019-02-20T02:55:50.345Z,30.96
2019-02-20T03:00:54.319Z,27.97
2019-02-20T03:06:04.860Z,28.67
2019-02-20T03:11:00.257Z,31.43
2019-02-20T03:16:00.435Z,30.92
2019-02-20T03:21:01.452Z,29.94
2019-02-20T03:26:01.647Z,29.00
2019-02-20T03:31:13.045Z,30.31
2019-02-20T03:36:17.191Z,28.32
2019-02-20T03:41:15.109Z,29.94
2019-02-20T03:46:19.243Z,28.15
2019-02-20T03:51:29.686Z,29.93
2019-02-20T03:56:24.417Z,28.95
2019-02-20T04:01:30.237Z,29.35
2019-02-20T04:06:30.979Z,28.30
2019-02-20T04:11:35.736Z,28.00
2019-02-20T04:16:37.203Z,28.17
2019-02-20T04:21:38.190Z,26.77
2019-02-20T04:26:40.853Z,26.53
2019-02-20T04:31:48.559Z,27.73
2019-02-20T04:36:50.197Z,30.69
2019-02-20T04:41:51.947Z,30.49
2019-02-20T04:46:53.535Z,30.13
2019-02-20T04:52:05.566Z,29.54
2019-02-20T04:56:56.316Z,31.06
2019-02-20T05:02:02.673Z,30.00
2019-02-20T05:07:06.986Z,30.23
2019-02-20T05:12:07.896Z,30.40
2019-02-20T05:17:10.941Z,29.13
2019-02-20T05:22:15.021Z,29.75
2019-02-20T05:27:16.214Z,29.30
2019-02-20T05:32:23.283Z,32.03
2019-02-20T05:37:44.272Z,28.63
2019-02-20T05:42:35.720Z,28.47
2019-02-20T05:47:38.541Z,28.28
2019-02-20T05:52:46.442Z,28.38
2019-02-20T05:57:52.210Z,30.62
2019-02-20T06:02:50.170Z,29.98
2019-02-20T06:08:05.912Z,30.08
2019-02-20T06:13:15.371Z,32.54
2019-02-20T06:18:20.908Z,31.41
2019-02-20T06:23:36.232Z,29.43
2019-02-20T06:28:25.138Z,28.64
2019-02-20T06:38:28.318Z,29.96
2019-02-20T06:43:33.322Z,31.74
2019-02-20T06:48:36.082Z,28.39
2019-02-20T06:53:43.211Z,29.00
2019-02-20T06:58:43.035Z,34.27
2019-02-20T07:03:52.200Z,31.22
2019-02-20T07:08:51.888Z,28.96
2019-02-20T07:14:01.152Z,32.07
2019-02-20T07:19:12.453Z,29.21
2019-02-20T07:24:22.772Z,25.83
2019-02-20T07:29:15.289Z,31.21
2019-02-20T07:34:28.190Z,28.71
2019-02-20T07:39:20.134Z,32.64
2019-02-20T07:44:26.499Z,32.35
2019-02-20T07:49:27.218Z,30.34
2019-02-20T07:54:31.091Z,31.26
2019-02-20T07:59:34.155Z,32.47
2019-02-20T08:04:37.617Z,32.02
2019-02-20T08:09:41.712Z,29.31
2019-02-20T08:14:43.118Z,32.30
2019-02-20T08:19:51.259Z,29.05
2019-02-20T08:24:50.815Z,27.73
2019-02-20T08:29:59.260Z,29.45
2019-02-20T08:34:59.756Z,28.00
2019-02-20T08:39:59.343Z,28.54
2019-02-20T08:45:17.852Z,28.48
2019-02-20T08:50:36.828Z,25.64
2019-02-20T08:55:40.389Z,26.83
2019-02-20T09:00:48.657Z,27.97
2019-02-20T09:05:44.837Z,29.28
2019-02-20T09:11:03.657Z,28.07
2019-02-20T09:21:13.011Z,26.42
2019-02-20T09:26:09.000Z,32.32
2019-02-20T09:31:15.771Z,26.67
2019-02-20T09:36:21.691Z,24.11
2019-02-20T09:41:30.150Z,24.65
2019-02-20T09:46:47.044Z,25.75
2019-02-20T09:51:42.706Z,28.80
2019-02-20T09:56:44.511Z,28.40
2019-02-20T10:01:48.773Z,25.77
2019-02-20T10:06:54.341Z,26.49
2019-02-20T10:22:00.688Z,24.98
2019-02-20T10:27:07.432Z,24.31
2019-02-20T10:32:11.259Z,24.19
2019-02-20T10:37:14.449Z,26.20
2019-02-20T10:42:19.339Z,26.65
2019-02-20T10:47:27.571Z,26.60
2019-02-20T10:52:34.336Z,28.04
2019-02-20T10:57:38.436Z,28.07
2019-02-20T11:02:43.721Z,27.88
2019-02-20T11:07:47.503Z,27.62
2019-02-20T11:13:04.285Z,26.25
2019-02-20T11:17:56.897Z,26.68
2019-02-20T11:22:57.267Z,29.87
2019-02-20T11:27:56.524Z,26.82
2019-02-20T11:33:20.096Z,24.56
2019-02-20T11:38:11.433Z,24.91
2019-02-20T11:43:13.113Z,25.72
2019-02-20T11:48:15.554Z,23.65
2019-02-20T11:53:18.041Z,22.42
2019-02-20T11:58:25.353Z,20.69
2019-02-20T12:03:23.096Z,18.42
2019-02-20T12:08:31.987Z,19.08
2019-02-20T12:13:47.672Z,16.94
2019-02-20T12:18:47.717Z,15.71
2019-02-20T12:23:47.456Z,16.53
2019-02-20T12:28:56.195Z,17.34
2019-02-20T12:34:04.536Z,18.31
2019-02-20T12:39:15.351Z,19.57
2019-02-20T12:44:23.175Z,18.68
2019-02-20T12:49:31.883Z,20.40
2019-02-20T12:54:31.435Z,18.81
2019-02-20T12:59:40.543Z,19.81
2019-02-20T13:04:59.694Z,18.88
2019-02-20T13:15:06.748Z,18.78
2019-02-20T13:20:09.453Z,20.42
2019-02-20T13:25:18.349Z,21.74
2019-02-20T13:30:30.724Z,19.67
2019-02-20T13:35:29.631Z,19.11
2019-02-20T13:40:36.147Z,19.34
2019-02-20T13:45:49.173Z,19.23
2019-02-20T13:50:53.728Z,17.66
2019-02-20T13:55:47.780Z,17.24
2019-02-20T14:06:02.538Z,13.59
2019-02-20T14:11:08.058Z,11.82
2019-02-20T14:16:07.743Z,12.96
2019-02-20T14:21:09.591Z,10.83
2019-02-20T14:26:09.217Z,12.53
2019-02-20T14:31:33.997Z,12.54
2019-02-20T14:36:30.394Z,11.08
2019-02-20T14:41:29.424Z,14.06
2019-02-20T14:46:51.604Z,13.81
2019-02-20T14:51:39.631Z,14.18
2019-02-20T14:56:53.167Z,14.53
2019-02-20T15:01:56.340Z,13.95
2019-02-20T15:06:55.013Z,13.65
2019-02-20T15:12:05.984Z,15.49
2019-02-20T15:17:07.974Z,15.73
2019-02-20T15:22:16.546Z,13.96
2019-02-20T15:27:19.219Z,14.04
2019-02-20T15:32:27.255Z,13.90
2019-02-20T15:37:25.544Z,13.32
2019-02-20T15:42:36.994Z,13.66
2019-02-20T15:47:45.734Z,13.43
2019-02-20T15:52:46.811Z,13.82
2019-02-20T15:57:47.683Z,13.94
2019-02-20T16:02:47.016Z,15.78
2019-02-20T16:08:04.406Z,14.92
2019-02-20T16:13:13.630Z,14.49
2019-02-20T16:18:11.732Z,13.62
2019-02-20T16:23:21.602Z,12.83
2019-02-20T16:28:33.886Z,13.01
2019-02-20T16:33:40.387Z,13.88
2019-02-20T16:38:39.055Z,14.32
2019-02-20T16:43:50.116Z,16.64
2019-02-20T16:48:52.455Z,15.14
2019-02-20T16:53:54.596Z,14.40
2019-02-20T16:59:00.454Z,15.23
2019-02-20T17:04:01.672Z,15.22
2019-02-20T17:09:02.915Z,15.85
2019-02-20T17:14:01.560Z,15.15
2019-02-20T17:19:17.559Z,15.27
2019-02-20T17:24:23.756Z,18.49
2019-02-20T17:29:24.473Z,32.78
2019-02-20T17:34:26.542Z,17.11
2019-02-20T17:39:44.664Z,19.99
2019-02-20T17:44:39.321Z,23.99
2019-02-20T17:49:46.312Z,15.22
2019-02-20T17:54:45.712Z,16.72
2019-02-20T17:59:45.201Z,15.74
2019-02-20T18:05:02.471Z,14.29
2019-02-20T18:10:09.637Z,14.67
2019-02-20T18:15:15.642Z,16.13
2019-02-20T18:20:25.329Z,14.55
2019-02-20T18:25:29.814Z,17.91
2019-02-20T18:30:42.978Z,15.27
2019-02-20T18:35:44.340Z,17.12
2019-02-20T18:40:42.572Z,16.74
2019-02-20T18:46:01.563Z,14.36
2019-02-20T18:50:54.427Z,13.21
2019-02-20T18:55:56.988Z,17.56
2019-02-20T19:01:08.118Z,15.50
2019-02-20T19:06:02.722Z,15.32
2019-02-20T19:11:11.828Z,16.61
2019-02-20T19:16:15.720Z,19.67
2019-02-20T19:21:17.543Z,16.67
2019-02-20T19:26:19.305Z,19.13
2019-02-20T19:31:21.110Z,22.96
2019-02-20T19:36:22.913Z,25.32
2019-02-20T19:41:26.261Z,25.83
2019-02-20T19:46:39.922Z,37.32
2019-02-20T19:51:30.139Z,28.61
2019-02-20T19:56:37.854Z,17.06
2019-02-20T20:01:48.967Z,15.32
2019-02-20T20:06:38.774Z,27.63
2019-02-20T20:11:44.974Z,28.03
2019-02-20T20:16:44.245Z,39.77
2019-02-20T20:21:45.342Z,26.81
2019-02-20T20:26:48.509Z,35.05
2019-02-20T20:31:58.958Z,25.25
2019-02-20T20:36:50.882Z,21.11
2019-02-20T20:41:51.748Z,23.04
2019-02-20T20:46:55.293Z,21.45
2019-02-20T20:51:56.270Z,20.78
2019-02-20T20:57:00.402Z,18.01
2019-02-20T21:02:05.884Z,19.72
2019-02-20T21:07:08.070Z,21.24
2019-02-20T21:12:12.770Z,17.31
2019-02-20T21:17:15.972Z,18.79
2019-02-20T21:22:16.106Z,18.67
2019-02-20T21:27:16.328Z,18.14
2019-02-20T21:32:17.436Z,17.74
2019-02-20T21:37:17.743Z,15.94
2019-02-20T21:42:19.606Z,15.78
2019-02-20T21:47:20.842Z,18.51
2019-02-20T21:52:25.030Z,17.58
2019-02-20T21:57:33.099Z,18.47
2019-02-20T22:02:22.321Z,23.24
2019-02-20T22:07:36.534Z,21.81
2019-02-20T22:12:53.247Z,21.34
2019-02-20T22:17:40.786Z,19.38
2019-02-20T22:22:51.874Z,17.37
2019-02-20T22:27:50.258Z,17.05
2019-02-20T22:33:05.586Z,15.87
2019-02-20T22:38:07.170Z,17.43
2019-02-20T22:43:17.372Z,15.49
2019-02-20T22:48:07.180Z,18.50
2019-02-20T22:53:16.983Z,18.42
2019-02-20T22:58:25.575Z,17.57
2019-02-20T23:03:37.622Z,16.22
2019-02-20T23:08:36.522Z,16.73
2019-02-20T23:13:44.815Z,16.45
2019-02-20T23:18:58.224Z,17.05
2019-02-20T23:23:59.175Z,15.76
2019-02-20T23:29:01.075Z,16.08
2019-02-20T23:34:02.868Z,17.38
2019-02-20T23:39:04.271Z,17.23
2019-02-20T23:44:04.389Z,21.43
2019-02-20T23:49:06.278Z,23.76
2019-02-20T23:54:16.295Z,16.26
2019-02-20T23:59:06.538Z,16.64
